createdAt,value
2022-09-12T00:00:06.238Z,10.79
2022-09-12T00:02:34.293Z,10.92
2022-09-12T00:05:02.271Z,10.89
2022-09-12T00:07:30.214Z,10.80
2022-09-12T00:09:58.401Z,10.83
2022-09-12T00:12:27.754Z,10.88
2022-09-12T00:14:55.731Z,10.82
2022-09-12T00:17:23.629Z,10.68
2022-09-12T00:19:51.634Z,10.67
2022-09-12T00:22:19.594Z,10.64
2022-09-12T00:24:47.562Z,10.65
2022-09-12T00:27:15.541Z,10.58
2022-09-12T00:29:44.905Z,10.66
2022-09-12T00:32:12.868Z,10.60
2022-09-12T00:34:40.826Z,10.57
2022-09-12T00:37:08.801Z,10.52
2022-09-12T00:39:36.801Z,10.54
2022-09-12T00:42:04.961Z,10.51
2022-09-12T00:44:53.014Z,10.55
2022-09-12T00:47:25.104Z,10.43
2022-09-12T00:49:59.146Z,10.45
2022-09-12T00:52:34.589Z,10.34
2022-09-12T00:55:06.783Z,10.29
2022-09-12T00:57:38.888Z,10.36
2022-09-12T01:00:15.016Z,10.41
2022-09-12T01:02:43.910Z,10.44
2022-09-12T01:05:13.826Z,10.41
2022-09-12T01:07:42.691Z,10.36
2022-09-12T01:10:11.479Z,10.34
2022-09-12T01:12:42.114Z,10.26
2022-09-12T01:15:12.192Z,10.18
2022-09-12T01:17:52.924Z,10.21
2022-09-12T01:20:47.248Z,10.26
2022-09-12T01:23:54.388Z,10.25
2022-09-12T01:26:59.801Z,10.24
2022-09-12T01:29:45.911Z,10.19
2022-09-12T01:32:22.934Z,10.08
2022-09-12T01:34:55.421Z,10.21
2022-09-12T01:37:34.163Z,10.21
2022-09-12T01:40:15.889Z,10.21
2022-09-12T01:42:53.801Z,10.22
2022-09-12T01:45:29.060Z,10.21
2022-09-12T01:48:05.431Z,10.18
2022-09-12T01:50:36.720Z,10.14
2022-09-12T01:53:10.441Z,10.07
2022-09-12T01:55:44.326Z,9.93
2022-09-12T01:58:18.859Z,9.97
2022-09-12T02:00:52.029Z,9.98
2022-09-12T02:03:26.365Z,9.91
2022-09-12T02:05:58.550Z,9.91
2022-09-12T02:08:30.074Z,9.91
2022-09-12T02:11:04.572Z,10.02
2022-09-12T02:13:39.208Z,9.96
2022-09-12T02:16:11.362Z,9.95
2022-09-12T02:18:45.997Z,9.89
2022-09-12T02:21:15.137Z,9.81
2022-09-12T02:23:50.146Z,9.77
2022-09-12T02:26:22.549Z,9.72
2022-09-12T02:28:50.798Z,9.69
2022-09-12T02:31:25.283Z,9.52
2022-09-12T02:34:09.664Z,9.46
2022-09-12T02:36:43.424Z,9.42
2022-09-12T02:39:11.500Z,9.44
2022-09-12T02:41:39.488Z,9.38
2022-09-12T02:44:07.626Z,9.41
2022-09-12T02:46:41.961Z,9.45
2022-09-12T02:49:11.730Z,9.52
2022-09-12T02:51:39.856Z,9.54
2022-09-12T02:54:09.232Z,9.62
2022-09-12T02:56:41.508Z,9.59
2022-09-12T02:59:12.508Z,9.57
2022-09-12T03:01:57.821Z,9.58
2022-09-12T03:04:46.177Z,9.71
2022-09-12T03:07:21.214Z,9.65
2022-09-12T03:10:00.522Z,9.64
2022-09-12T03:12:44.058Z,9.66
2022-09-12T03:15:23.562Z,9.67
2022-09-12T03:18:07.297Z,9.60
2022-09-12T03:20:46.078Z,9.49
2022-09-12T03:23:24.237Z,9.47
2022-09-12T03:25:57.144Z,9.51
2022-09-12T03:28:25.224Z,9.48
2022-09-12T03:30:54.688Z,9.44
2022-09-12T03:33:26.340Z,9.42
2022-09-12T03:35:56.545Z,9.41
2022-09-12T03:38:24.575Z,9.42
2022-09-12T03:40:54.852Z,9.45
2022-09-12T03:43:23.274Z,9.48
2022-09-12T03:45:52.381Z,9.49
2022-09-12T03:48:20.465Z,9.52
2022-09-12T03:50:48.411Z,9.46
2022-09-12T03:53:18.109Z,9.31
2022-09-12T03:55:46.336Z,9.26
2022-09-12T03:58:15.244Z,9.26
2022-09-12T04:00:44.284Z,9.26
2022-09-12T04:03:12.227Z,9.20
2022-09-12T04:05:40.201Z,9.21
2022-09-12T04:08:08.173Z,9.19
2022-09-12T04:10:37.489Z,9.12
2022-09-12T04:13:05.517Z,9.05
2022-09-12T04:15:33.449Z,9.09
2022-09-12T04:18:05.614Z,9.08
2022-09-12T04:20:34.131Z,9.16
2022-09-12T04:23:02.059Z,9.20
2022-09-12T04:25:31.302Z,9.26
2022-09-12T04:28:00.657Z,9.26
2022-09-12T04:30:28.660Z,9.20
2022-09-12T04:32:56.607Z,9.20
2022-09-12T04:35:24.584Z,9.11
2022-09-12T04:37:52.586Z,9.10
2022-09-12T04:40:20.876Z,9.13
2022-09-12T04:42:48.841Z,9.13
2022-09-12T04:45:18.149Z,9.12
2022-09-12T04:47:46.734Z,9.11
2022-09-12T04:50:14.908Z,9.10
2022-09-12T04:52:43.348Z,9.08
2022-09-12T04:55:11.373Z,9.06
2022-09-12T04:57:39.382Z,9.01
2022-09-12T05:00:08.777Z,9.06
2022-09-12T05:02:38.243Z,9.09
2022-09-12T05:05:07.350Z,9.10
2022-09-12T05:07:35.417Z,9.10
2022-09-12T05:10:04.595Z,9.16
2022-09-12T05:12:32.848Z,9.24
2022-09-12T05:15:00.769Z,9.21
2022-09-12T05:17:30.236Z,9.22
2022-09-12T05:19:59.568Z,9.25
2022-09-12T05:22:27.501Z,9.32
2022-09-12T05:24:55.466Z,9.39
2022-09-12T05:27:23.417Z,9.36
2022-09-12T05:29:51.346Z,9.34
2022-09-12T05:32:19.308Z,9.39
2022-09-12T05:34:47.544Z,9.41
2022-09-12T05:37:17.500Z,9.48
2022-09-12T05:39:46.002Z,9.52
2022-09-12T05:42:14.281Z,9.55
2022-09-12T05:44:42.263Z,9.58
2022-09-12T05:47:12.947Z,9.61
2022-09-12T05:49:41.610Z,9.69
2022-09-12T05:52:09.702Z,9.79
2022-09-12T05:54:38.976Z,9.89
2022-09-12T05:57:07.057Z,9.96
2022-09-12T05:59:35.263Z,10.01
2022-09-12T06:02:03.226Z,10.06
2022-09-12T06:04:31.214Z,10.17
2022-09-12T06:06:59.228Z,10.27
2022-09-12T06:09:28.084Z,10.31
2022-09-12T06:11:57.398Z,10.42
2022-09-12T06:14:25.393Z,10.46
2022-09-12T06:16:53.476Z,10.51
2022-09-12T06:19:23.609Z,10.51
2022-09-12T06:21:52.676Z,10.62
2022-09-12T06:24:21.676Z,10.74
2022-09-12T06:26:50.267Z,10.80
2022-09-12T06:29:20.611Z,10.89
2022-09-12T06:31:48.579Z,10.94
2022-09-12T06:34:17.690Z,10.98
2022-09-12T06:36:47.528Z,11.10
2022-09-12T06:39:17.169Z,11.17
2022-09-12T06:41:45.985Z,11.23
2022-09-12T06:44:16.107Z,11.33
2022-09-12T06:46:45.857Z,11.41
2022-09-12T06:49:14.141Z,11.48
2022-09-12T06:51:43.238Z,11.54
2022-09-12T06:54:13.907Z,11.62
2022-09-12T06:56:42.056Z,11.68
2022-09-12T06:59:10.072Z,11.75
2022-09-12T07:01:38.315Z,11.84
2022-09-12T07:04:07.692Z,11.90
2022-09-12T07:06:38.423Z,11.99
2022-09-12T07:09:07.699Z,12.07
2022-09-12T07:11:38.011Z,12.14
2022-09-12T07:14:07.839Z,12.21
2022-09-12T07:16:37.219Z,12.30
2022-09-12T07:19:08.909Z,12.48
2022-09-12T07:21:40.060Z,12.59
2022-09-12T07:24:09.806Z,12.72
2022-09-12T07:26:38.542Z,12.85
2022-09-12T07:29:35.522Z,13.05
2022-09-12T07:31:54.864Z,13.13
2022-09-12T07:34:24.183Z,13.30
2022-09-12T07:36:52.164Z,13.43
2022-09-12T07:39:20.193Z,13.52
2022-09-12T07:41:48.208Z,13.65
2022-09-12T07:44:16.170Z,13.75
2022-09-12T07:46:44.303Z,13.85
2022-09-12T07:49:13.549Z,13.91
2022-09-12T07:51:43.351Z,14.11
2022-09-12T07:54:11.392Z,14.17
2022-09-12T07:56:40.477Z,14.25
2022-09-12T07:59:08.918Z,14.37
2022-09-12T08:01:37.011Z,14.44
2022-09-12T08:04:05.868Z,14.49
2022-09-12T08:06:40.277Z,14.13
2022-09-12T08:09:12.082Z,14.66
2022-09-12T08:11:40.114Z,14.76
2022-09-12T08:14:08.074Z,14.94
2022-09-12T08:16:36.328Z,15.18
2022-09-12T08:19:04.768Z,15.20
2022-09-12T08:21:34.190Z,15.30
2022-09-12T08:24:04.657Z,15.37
2022-09-12T08:26:35.201Z,15.50
2022-09-12T08:29:04.164Z,15.59
2022-09-12T08:31:36.317Z,15.69
2022-09-12T08:34:05.467Z,15.77
2022-09-12T08:36:33.694Z,15.78
2022-09-12T08:39:04.585Z,15.93
2022-09-12T08:41:37.061Z,16.06
2022-09-12T08:44:40.815Z,16.25
2022-09-12T08:47:28.529Z,16.34
2022-09-12T08:50:15.240Z,16.42
2022-09-12T08:52:50.804Z,16.47
2022-09-12T08:55:31.107Z,16.55
2022-09-12T08:58:01.545Z,16.60
2022-09-12T09:00:40.533Z,16.64
2022-09-12T09:03:30.559Z,16.75
2022-09-12T09:06:07.319Z,16.78
2022-09-12T09:08:45.137Z,16.81
2022-09-12T09:11:25.648Z,16.85
2022-09-12T09:14:37.409Z,16.92
2022-09-12T09:17:10.429Z,17.10
2022-09-12T09:19:48.832Z,17.18
2022-09-12T09:22:36.570Z,17.32
2022-09-12T09:25:11.201Z,17.38
2022-09-12T09:27:44.954Z,17.67
2022-09-12T09:30:17.643Z,17.54
2022-09-12T09:32:51.052Z,17.67
2022-09-12T09:35:25.773Z,17.83
2022-09-12T09:38:02.755Z,17.88
2022-09-12T09:40:47.100Z,17.96
2022-09-12T09:43:22.868Z,18.01
2022-09-12T09:45:53.865Z,18.08
2022-09-12T09:48:25.811Z,18.05
2022-09-12T09:50:54.028Z,18.09
2022-09-12T09:53:37.471Z,18.16
2022-09-12T09:56:11.382Z,18.31
2022-09-12T09:58:40.750Z,18.32
2022-09-12T10:01:17.322Z,18.50
2022-09-12T10:03:53.014Z,18.58
2022-09-12T10:06:32.363Z,18.55
2022-09-12T10:09:22.040Z,18.66
2022-09-12T10:11:51.536Z,18.70
2022-09-12T10:14:36.018Z,18.79
2022-09-12T10:17:24.670Z,18.81
2022-09-12T10:20:10.692Z,18.89
2022-09-12T10:22:41.449Z,18.98
2022-09-12T10:25:13.260Z,19.09
2022-09-12T10:27:43.016Z,19.23
2022-09-12T10:30:18.631Z,19.27
2022-09-12T10:32:50.841Z,19.29
2022-09-12T10:35:21.989Z,19.43
2022-09-12T10:37:56.664Z,19.53
2022-09-12T10:40:27.450Z,19.58
2022-09-12T10:42:57.086Z,19.47
2022-09-12T10:45:29.035Z,19.43
2022-09-12T10:48:04.140Z,19.42
2022-09-12T10:50:40.309Z,19.46
2022-09-12T10:53:20.274Z,19.41
2022-09-12T10:56:07.828Z,19.47
2022-09-12T10:58:51.997Z,19.48
2022-09-12T11:01:35.408Z,19.55
2022-09-12T11:04:25.218Z,19.55
2022-09-12T11:07:06.036Z,19.65
2022-09-12T11:09:39.370Z,19.77
2022-09-12T11:12:16.370Z,19.89
2022-09-12T11:14:56.502Z,19.91
2022-09-12T11:17:41.507Z,19.84
2022-09-12T11:20:23.942Z,19.80
2022-09-12T11:23:26.481Z,19.93
2022-09-12T11:26:01.242Z,20.04
2022-09-12T11:28:47.380Z,20.07
2022-09-12T11:31:33.965Z,20.08
2022-09-12T11:34:09.475Z,20.25
2022-09-12T11:36:52.429Z,20.24
2022-09-12T11:39:24.857Z,20.34
2022-09-12T11:41:58.267Z,20.33
2022-09-12T11:44:30.753Z,20.35
2022-09-12T11:46:59.450Z,20.42
2022-09-12T11:49:35.620Z,20.37
2022-09-12T11:52:12.335Z,20.38
2022-09-12T11:54:49.044Z,20.42
2022-09-12T11:57:28.209Z,20.51
2022-09-12T12:00:03.249Z,20.72
2022-09-12T12:02:36.769Z,20.80
2022-09-12T12:05:20.410Z,20.79
2022-09-12T12:07:54.950Z,20.79
2022-09-12T12:10:26.234Z,20.98
2022-09-12T12:12:56.134Z,21.12
2022-09-12T12:15:26.896Z,21.28
2022-09-12T12:18:03.633Z,21.34
2022-09-12T12:20:32.271Z,21.57
2022-09-12T12:23:01.994Z,21.34
2022-09-12T12:25:52.983Z,21.66
2022-09-12T12:29:00.525Z,21.77
2022-09-12T12:31:28.527Z,21.80
2022-09-12T12:34:23.886Z,22.13
2022-09-12T12:36:51.979Z,22.13
2022-09-12T12:40:00.900Z,21.96
2022-09-12T12:43:04.866Z,21.91
2022-09-12T12:46:04.964Z,21.84
2022-09-12T12:48:37.873Z,21.70
2022-09-12T12:51:30.594Z,21.65
2022-09-12T12:53:59.024Z,21.59
2022-09-12T12:56:36.338Z,21.49
2022-09-12T12:59:16.663Z,21.50
2022-09-12T13:01:54.711Z,21.56
2022-09-12T13:04:25.989Z,21.72
2022-09-12T13:07:04.582Z,21.86
2022-09-12T13:09:40.081Z,22.39
2022-09-12T13:12:11.576Z,22.34
2022-09-12T13:14:53.889Z,22.41
2022-09-12T13:17:33.529Z,22.41
2022-09-12T13:20:34.571Z,22.29
2022-09-12T13:23:02.617Z,22.14
2022-09-12T13:25:33.373Z,21.78
2022-09-12T13:28:07.445Z,21.72
2022-09-12T13:30:39.746Z,21.58
2022-09-12T13:33:17.860Z,21.47
2022-09-12T13:36:11.640Z,21.24
2022-09-12T13:38:51.004Z,21.31
2022-09-12T13:41:35.290Z,21.31
2022-09-12T13:44:05.180Z,21.34
2022-09-12T13:46:35.553Z,21.42
2022-09-12T13:49:13.512Z,21.55
2022-09-12T13:51:41.763Z,21.60
2022-09-12T13:54:22.513Z,21.61
2022-09-12T13:56:52.427Z,21.68
2022-09-12T13:59:20.400Z,21.67
2022-09-12T14:01:50.828Z,21.99
2022-09-12T14:04:38.685Z,22.19
2022-09-12T14:07:14.360Z,22.14
2022-09-12T14:09:45.104Z,22.11
2022-09-12T14:12:25.196Z,23.06
2022-09-12T14:14:54.417Z,23.79
2022-09-12T14:17:31.671Z,24.31
2022-09-12T14:20:02.043Z,24.32
2022-09-12T14:22:30.952Z,23.97
2022-09-12T14:25:00.407Z,23.52
2022-09-12T14:27:32.868Z,23.91
2022-09-12T14:30:03.796Z,24.78
2022-09-12T14:32:33.180Z,25.95
2022-09-12T14:35:18.062Z,27.01
2022-09-12T14:37:49.387Z,28.78
2022-09-12T14:40:19.761Z,29.77
2022-09-12T14:42:50.546Z,30.06
2022-09-12T14:45:25.049Z,30.74
2022-09-12T14:47:54.937Z,30.90
2022-09-12T14:50:26.202Z,30.65
2022-09-12T14:53:05.297Z,30.47
2022-09-12T14:55:35.557Z,29.90
2022-09-12T14:58:16.904Z,29.78
2022-09-12T15:01:03.778Z,29.41
2022-09-12T15:03:35.647Z,28.56
2022-09-12T15:06:05.677Z,27.18
2022-09-12T15:08:33.920Z,26.44
2022-09-12T15:11:01.957Z,25.38
2022-09-12T15:13:32.061Z,25.05
2022-09-12T15:16:00.722Z,24.52
2022-09-12T15:18:30.059Z,24.23
2022-09-12T15:21:03.671Z,24.13
2022-09-12T15:23:36.264Z,24.27
2022-09-12T15:26:04.809Z,24.76
2022-09-12T15:28:33.065Z,25.53
2022-09-12T15:31:12.819Z,25.24
2022-09-12T15:33:40.844Z,25.10
2022-09-12T15:36:16.971Z,25.08
2022-09-12T15:38:45.521Z,24.98
2022-09-12T15:41:17.117Z,24.57
2022-09-12T15:43:45.514Z,24.87
2022-09-12T15:46:15.219Z,25.32
2022-09-12T15:48:43.388Z,25.76
2022-09-12T15:51:15.694Z,25.75
2022-09-12T15:53:44.490Z,25.69
2022-09-12T15:56:12.813Z,25.32
2022-09-12T15:58:55.002Z,24.70
2022-09-12T16:01:27.061Z,24.36
2022-09-12T16:03:55.225Z,24.06
2022-09-12T16:06:25.038Z,23.62
2022-09-12T16:08:53.037Z,23.40
2022-09-12T16:11:23.183Z,23.34
2022-09-12T16:13:54.000Z,22.99
2022-09-12T16:16:22.167Z,22.77
2022-09-12T16:18:50.202Z,22.40
2022-09-12T16:21:18.397Z,22.44
2022-09-12T16:23:48.657Z,22.29
2022-09-12T16:26:17.461Z,22.20
2022-09-12T16:28:46.115Z,21.96
2022-09-12T16:31:15.231Z,21.79
2022-09-12T16:33:43.364Z,21.61
2022-09-12T16:36:13.400Z,21.57
2022-09-12T16:38:42.388Z,21.39
2022-09-12T16:41:12.545Z,21.17
2022-09-12T16:43:41.159Z,21.07
2022-09-12T16:46:10.883Z,20.95
2022-09-12T16:48:42.758Z,20.81
2022-09-12T16:51:10.888Z,20.73
2022-09-12T16:53:40.201Z,20.59
2022-09-12T16:56:08.784Z,20.51
2022-09-12T16:58:42.029Z,20.42
2022-09-12T17:01:12.367Z,20.31
2022-09-12T17:03:40.510Z,20.18
2022-09-12T17:06:10.287Z,20.06
2022-09-12T17:08:40.323Z,19.93
2022-09-12T17:11:10.740Z,19.81
2022-09-12T17:14:03.115Z,19.72
2022-09-12T17:16:29.957Z,19.66
2022-09-12T17:18:57.935Z,19.50
2022-09-12T17:21:26.190Z,19.43
2022-09-12T17:23:54.272Z,19.26
2022-09-12T17:26:22.480Z,19.19
2022-09-12T17:28:51.853Z,19.10
2022-09-12T17:31:20.097Z,19.08
2022-09-12T17:33:48.321Z,19.06
2022-09-12T17:36:18.592Z,19.02
2022-09-12T17:38:47.401Z,18.91
2022-09-12T17:41:17.808Z,18.90
2022-09-12T17:43:46.778Z,18.84
2022-09-12T17:46:16.122Z,18.76
2022-09-12T17:48:44.115Z,18.66
2022-09-12T17:51:14.413Z,18.64
2022-09-12T17:53:43.006Z,18.56
2022-09-12T17:56:11.954Z,18.53
2022-09-12T17:58:40.046Z,18.48
2022-09-12T18:01:28.299Z,18.42
2022-09-12T18:04:00.471Z,18.35
2022-09-12T18:06:28.627Z,18.32
2022-09-12T18:08:56.598Z,18.26
2022-09-12T18:11:24.583Z,18.19
2022-09-12T18:13:52.529Z,18.14
2022-09-12T18:16:20.533Z,18.12
2022-09-12T18:18:50.921Z,18.09
2022-09-12T18:21:20.442Z,18.10
2022-09-12T18:23:48.628Z,18.08
2022-09-12T18:26:16.613Z,18.10
2022-09-12T18:28:45.627Z,18.07
2022-09-12T18:31:16.071Z,18.06
2022-09-12T18:33:44.193Z,18.05
2022-09-12T18:36:14.133Z,18.03
2022-09-12T18:38:45.300Z,17.98
2022-09-12T18:41:15.221Z,17.91
2022-09-12T18:43:43.573Z,17.93
2022-09-12T18:46:13.736Z,17.94
2022-09-12T18:48:41.831Z,17.85
2022-09-12T18:51:12.956Z,17.81
2022-09-12T18:53:41.408Z,17.76
2022-09-12T18:56:12.438Z,17.71
2022-09-12T18:58:42.572Z,17.70
2022-09-12T19:01:12.139Z,17.59
2022-09-12T19:03:40.560Z,17.63
2022-09-12T19:06:11.718Z,17.61
2022-09-12T19:08:40.331Z,17.58
2022-09-12T19:11:10.632Z,17.51
2022-09-12T19:13:40.972Z,17.55
2022-09-12T19:16:10.512Z,17.49
2022-09-12T19:18:40.036Z,17.43
2022-09-12T19:21:09.449Z,17.39
2022-09-12T19:23:37.622Z,17.35
2022-09-12T19:26:07.948Z,17.32
2022-09-12T19:28:37.502Z,17.32
2022-09-12T19:31:06.441Z,17.28
2022-09-12T19:33:35.517Z,17.26
2022-09-12T19:36:04.980Z,17.24
2022-09-12T19:38:33.188Z,17.21
2022-09-12T19:41:03.524Z,17.23
2022-09-12T19:43:32.181Z,17.20
2022-09-12T19:46:02.305Z,17.16
2022-09-12T19:48:30.866Z,17.05
2022-09-12T19:51:00.740Z,17.04
2022-09-12T19:53:29.173Z,16.97
2022-09-12T19:56:01.407Z,16.88
2022-09-12T19:58:29.684Z,16.87
2022-09-12T20:01:07.738Z,16.87
2022-09-12T20:03:37.236Z,16.83
2022-09-12T20:06:06.640Z,16.76
2022-09-12T20:08:35.163Z,16.71
2022-09-12T20:11:03.206Z,16.68
2022-09-12T20:13:31.267Z,16.67
2022-09-12T20:16:07.383Z,16.69
2022-09-12T20:18:39.206Z,16.66
2022-09-12T20:21:11.888Z,16.65
2022-09-12T20:23:40.850Z,16.60
2022-09-12T20:26:09.595Z,16.59
2022-09-12T20:28:37.713Z,16.57
2022-09-12T20:31:07.923Z,16.52
2022-09-12T20:33:36.054Z,16.50
2022-09-12T20:36:07.682Z,16.44
2022-09-12T20:38:36.505Z,16.46
2022-09-12T20:41:06.171Z,16.21
2022-09-12T20:43:34.306Z,16.29
2022-09-12T20:46:06.180Z,16.26
2022-09-12T20:48:34.359Z,16.20
2022-09-12T20:51:02.426Z,16.17
2022-09-12T20:53:34.996Z,16.12
2022-09-12T20:56:05.353Z,16.10
2022-09-12T20:58:34.041Z,16.11
2022-09-12T21:01:08.471Z,16.10
2022-09-12T21:03:38.850Z,16.15
2022-09-12T21:06:07.679Z,16.19
2022-09-12T21:08:38.343Z,16.19
2022-09-12T21:11:07.597Z,16.18
2022-09-12T21:13:35.829Z,16.17
2022-09-12T21:16:06.324Z,16.13
2022-09-12T21:18:35.860Z,16.16
2022-09-12T21:21:04.805Z,16.11
2022-09-12T21:23:33.615Z,16.14
2022-09-12T21:26:03.462Z,16.14
2022-09-12T21:28:31.927Z,16.10
2022-09-12T21:31:00.227Z,16.01
2022-09-12T21:33:28.859Z,16.10
2022-09-12T21:36:01.666Z,16.13
2022-09-12T21:38:30.457Z,16.13
2022-09-12T21:41:06.530Z,16.03
2022-09-12T21:43:34.887Z,16.14
2022-09-12T21:46:03.493Z,16.12
2022-09-12T21:48:31.857Z,16.18
2022-09-12T21:51:00.596Z,16.18
2022-09-12T21:53:28.663Z,16.18
2022-09-12T21:56:01.771Z,16.14
2022-09-12T21:58:31.223Z,16.11
2022-09-12T22:01:00.329Z,16.11
2022-09-12T22:03:28.890Z,16.09
2022-09-12T22:06:01.478Z,16.10
2022-09-12T22:08:31.007Z,16.10
2022-09-12T22:11:00.835Z,16.07
2022-09-12T22:13:31.431Z,16.07
2022-09-12T22:16:00.614Z,16.07
2022-09-12T22:18:28.727Z,16.04
2022-09-12T22:21:01.584Z,16.05
2022-09-12T22:23:47.207Z,16.03
2022-09-12T22:26:15.615Z,16.07
2022-09-12T22:28:47.239Z,16.08
2022-09-12T22:31:16.164Z,16.06
2022-09-12T22:33:44.359Z,16.08
2022-09-12T22:36:12.723Z,16.05
2022-09-12T22:38:40.791Z,16.04
2022-09-12T22:41:11.640Z,16.06
2022-09-12T22:43:39.758Z,15.99
2022-09-12T22:46:10.890Z,16.00
2022-09-12T22:48:39.766Z,16.02
2022-09-12T22:51:08.306Z,16.02
2022-09-12T22:53:36.876Z,16.02
2022-09-12T22:56:06.077Z,16.01
2022-09-12T22:58:36.653Z,15.98
2022-09-12T23:01:06.014Z,15.96
2022-09-12T23:03:36.120Z,16.02
2022-09-12T23:06:04.516Z,16.02
2022-09-12T23:08:32.998Z,16.00
2022-09-12T23:11:02.661Z,16.00
2022-09-12T23:13:31.027Z,15.99
2022-09-12T23:16:00.098Z,15.99
2022-09-12T23:18:28.884Z,16.01
2022-09-12T23:21:03.572Z,16.03
2022-09-12T23:23:31.876Z,16.01
2022-09-12T23:26:08.046Z,15.97
2022-09-12T23:28:36.645Z,15.93
2022-09-12T23:31:04.964Z,15.89
2022-09-12T23:33:33.331Z,15.86
2022-09-12T23:36:05.022Z,15.80
2022-09-12T23:38:33.812Z,15.77
2022-09-12T23:41:03.227Z,15.79
2022-09-12T23:43:31.668Z,15.75
2022-09-12T23:46:01.314Z,15.61
2022-09-12T23:48:29.809Z,15.70
2022-09-12T23:50:57.939Z,15.70
2022-09-12T23:53:27.459Z,15.65
2022-09-12T23:55:55.480Z,15.65
2022-09-12T23:58:23.597Z,15.52
